createdAt,value
2022-10-30T00:02:23.579Z,7.70
2022-10-30T00:04:50.233Z,6.65
2022-10-30T00:07:16.817Z,6.75
2022-10-30T00:09:43.452Z,6.97
2022-10-30T00:12:10.046Z,7.38
2022-10-30T00:14:36.649Z,6.38
2022-10-30T00:17:03.218Z,7.22
2022-10-30T00:19:29.818Z,6.72
2022-10-30T00:24:23.424Z,6.18
2022-10-30T00:26:49.994Z,7.00
2022-10-30T00:29:16.622Z,6.68
2022-10-30T00:31:43.212Z,6.28
2022-10-30T00:34:09.820Z,6.38
2022-10-30T00:36:36.393Z,6.22
2022-10-30T00:39:04.283Z,6.00
2022-10-30T00:41:30.903Z,6.75
2022-10-30T00:43:57.491Z,6.30
2022-10-30T00:46:29.494Z,6.00
2022-10-30T00:49:03.377Z,7.03
2022-10-30T00:51:30.703Z,6.40
2022-10-30T00:53:58.430Z,7.05
2022-10-30T00:56:25.062Z,6.53
2022-10-30T00:58:54.588Z,5.93
2022-10-30T01:01:23.498Z,6.20
2022-10-30T01:03:50.922Z,7.68
2022-10-30T01:06:17.547Z,7.60
2022-10-30T01:08:44.707Z,6.38
2022-10-30T01:11:11.439Z,5.97
2022-10-30T01:13:38.097Z,6.68
2022-10-30T01:16:13.883Z,6.57
2022-10-30T01:18:49.162Z,6.40
2022-10-30T01:21:32.038Z,6.32
2022-10-30T01:24:28.400Z,5.68
2022-10-30T01:27:19.175Z,6.57
2022-10-30T01:30:01.981Z,6.95
2022-10-30T01:32:40.597Z,6.90
2022-10-30T01:35:45.773Z,6.90
2022-10-30T01:38:34.669Z,6.70
2022-10-30T01:41:01.260Z,6.32
2022-10-30T01:43:27.828Z,6.20
2022-10-30T01:46:03.389Z,6.57
2022-10-30T01:48:50.116Z,6.70
2022-10-30T01:51:32.004Z,6.75
2022-10-30T01:54:11.186Z,6.85
2022-10-30T01:56:38.554Z,5.70
2022-10-30T01:59:14.809Z,6.88
2022-10-30T02:01:41.616Z,5.80
2022-10-30T02:04:08.876Z,6.28
2022-10-30T02:06:36.951Z,6.32
2022-10-30T02:09:04.150Z,6.10
2022-10-30T02:11:31.055Z,5.68
2022-10-30T02:13:57.949Z,6.57
2022-10-30T02:16:24.657Z,5.93
2022-10-30T02:18:51.286Z,6.20
2022-10-30T02:21:17.916Z,5.80
2022-10-30T02:23:44.525Z,6.10
2022-10-30T02:26:11.080Z,5.63
2022-10-30T02:28:37.676Z,5.93
2022-10-30T02:31:04.334Z,5.57
2022-10-30T02:33:30.964Z,5.72
2022-10-30T02:35:57.534Z,5.85
2022-10-30T02:38:24.301Z,5.75
2022-10-30T02:40:50.901Z,6.03
2022-10-30T02:43:17.560Z,5.93
2022-10-30T02:45:44.125Z,6.13
2022-10-30T02:50:42.238Z,5.32
2022-10-30T02:53:08.775Z,6.18
2022-10-30T02:55:35.356Z,5.50
2022-10-30T02:58:01.902Z,5.68
2022-10-30T03:00:28.557Z,6.53
2022-10-30T03:02:57.960Z,6.47
2022-10-30T03:05:24.808Z,5.63
2022-10-30T03:07:51.592Z,6.78
2022-10-30T03:10:18.760Z,5.75
2022-10-30T03:12:45.408Z,5.68
2022-10-30T03:15:11.957Z,6.13
2022-10-30T03:17:38.553Z,5.68
2022-10-30T03:20:05.610Z,6.60
2022-10-30T03:22:32.163Z,5.93
2022-10-30T03:24:58.798Z,6.05
2022-10-30T03:27:25.328Z,5.13
2022-10-30T03:29:51.915Z,6.30
2022-10-30T03:32:18.508Z,6.13
2022-10-30T03:34:45.135Z,5.97
2022-10-30T03:37:11.684Z,6.03
2022-10-30T03:39:38.252Z,5.78
2022-10-30T03:42:04.920Z,6.30
2022-10-30T03:44:31.511Z,5.63
2022-10-30T03:46:58.642Z,5.03
2022-10-30T03:49:25.326Z,6.47
2022-10-30T03:51:51.883Z,6.05
2022-10-30T03:54:18.691Z,6.40
2022-10-30T03:56:46.171Z,5.43
2022-10-30T03:59:12.749Z,5.45
2022-10-30T04:01:39.468Z,6.28
2022-10-30T04:04:06.195Z,5.75
2022-10-30T04:06:32.754Z,5.85
2022-10-30T04:08:59.379Z,6.68
2022-10-30T04:11:25.987Z,5.65
2022-10-30T04:13:52.639Z,5.35
2022-10-30T04:16:19.206Z,5.93
2022-10-30T04:18:45.796Z,5.75
2022-10-30T04:21:12.322Z,6.13
2022-10-30T04:23:38.891Z,5.47
2022-10-30T04:26:05.458Z,6.22
2022-10-30T04:28:32.041Z,5.35
2022-10-30T04:30:58.620Z,5.90
2022-10-30T04:33:25.270Z,6.13
2022-10-30T04:35:51.822Z,5.10
2022-10-30T04:38:19.726Z,6.28
2022-10-30T04:40:46.291Z,5.72
2022-10-30T04:43:13.569Z,5.05
2022-10-30T04:45:40.593Z,5.78
2022-10-30T04:48:14.147Z,5.13
2022-10-30T04:50:40.780Z,5.45
2022-10-30T04:53:10.423Z,6.10
2022-10-30T04:55:37.003Z,5.07
2022-10-30T04:58:03.656Z,5.53
2022-10-30T05:00:31.001Z,5.40
2022-10-30T05:03:01.446Z,4.82
2022-10-30T05:05:31.400Z,5.38
2022-10-30T05:07:58.436Z,5.95
2022-10-30T05:10:25.234Z,5.53
2022-10-30T05:12:53.582Z,5.47
2022-10-30T05:15:20.164Z,5.47
2022-10-30T05:17:46.703Z,5.28
2022-10-30T05:20:14.937Z,6.10
2022-10-30T05:22:45.258Z,6.50
2022-10-30T05:25:11.845Z,7.03
2022-10-30T05:27:38.376Z,6.30
2022-10-30T05:30:05.399Z,6.13
2022-10-30T05:32:31.928Z,5.95
2022-10-30T05:34:58.493Z,5.70
2022-10-30T05:37:25.198Z,5.97
2022-10-30T05:39:51.770Z,5.65
2022-10-30T05:42:18.313Z,6.47
2022-10-30T05:45:00.417Z,6.85
2022-10-30T05:49:54.588Z,5.82
2022-10-30T05:52:21.183Z,5.70
2022-10-30T05:54:47.749Z,6.95
2022-10-30T05:57:14.287Z,5.30
2022-10-30T05:59:40.850Z,6.28
2022-10-30T06:02:07.528Z,5.32
2022-10-30T06:04:34.202Z,6.28
2022-10-30T06:07:00.925Z,5.43
2022-10-30T06:09:27.485Z,6.22
2022-10-30T06:11:55.654Z,6.20
2022-10-30T06:14:22.273Z,5.35
2022-10-30T06:16:48.805Z,6.25
2022-10-30T06:19:18.421Z,5.65
2022-10-30T06:21:45.809Z,5.25
2022-10-30T06:24:12.690Z,5.78
2022-10-30T06:26:39.378Z,5.55
2022-10-30T06:29:06.015Z,5.40
2022-10-30T06:31:32.652Z,5.95
2022-10-30T06:33:59.374Z,5.95
2022-10-30T06:36:26.010Z,5.93
2022-10-30T06:38:52.629Z,5.72
2022-10-30T06:41:19.207Z,5.50
2022-10-30T06:43:45.786Z,5.80
2022-10-30T06:46:12.331Z,5.93
2022-10-30T06:48:38.901Z,6.22
2022-10-30T06:51:05.666Z,6.32
2022-10-30T06:53:32.264Z,6.30
2022-10-30T06:56:03.074Z,5.35
2022-10-30T06:58:29.897Z,6.45
2022-10-30T07:00:56.671Z,5.85
2022-10-30T07:03:23.242Z,5.18
2022-10-30T07:05:49.786Z,5.55
2022-10-30T07:08:16.326Z,5.35
2022-10-30T07:10:42.919Z,5.75
2022-10-30T07:13:09.683Z,5.43
2022-10-30T07:15:36.348Z,6.45
2022-10-30T07:18:03.959Z,5.53
2022-10-30T07:20:33.390Z,5.57
2022-10-30T07:23:00.365Z,5.70
2022-10-30T07:25:27.115Z,4.70
2022-10-30T07:27:54.419Z,5.63
2022-10-30T07:30:23.093Z,5.47
2022-10-30T07:33:03.274Z,5.95
2022-10-30T07:35:30.460Z,5.05
2022-10-30T07:38:00.226Z,5.10
2022-10-30T07:40:26.789Z,4.93
2022-10-30T07:43:01.338Z,5.93
2022-10-30T07:45:28.385Z,5.68
2022-10-30T07:47:55.360Z,5.95
2022-10-30T07:50:22.957Z,5.00
2022-10-30T07:52:49.640Z,6.38
2022-10-30T07:55:16.326Z,5.95
2022-10-30T07:57:43.011Z,5.78
2022-10-30T08:00:12.025Z,6.05
2022-10-30T08:02:38.807Z,4.80
2022-10-30T08:05:06.371Z,5.07
2022-10-30T08:07:34.017Z,4.95
2022-10-30T08:10:00.612Z,4.85
2022-10-30T08:12:27.463Z,4.60
2022-10-30T08:14:54.186Z,4.68
2022-10-30T08:17:21.438Z,4.70
2022-10-30T08:19:48.047Z,4.70
2022-10-30T08:22:14.614Z,4.47
2022-10-30T08:24:41.218Z,4.35
2022-10-30T08:27:07.803Z,4.43
2022-10-30T08:29:36.980Z,3.85
2022-10-30T08:32:03.806Z,3.92
2022-10-30T08:34:32.518Z,4.40
2022-10-30T08:37:00.204Z,4.03
2022-10-30T08:39:26.912Z,3.85
2022-10-30T08:41:53.545Z,3.83
2022-10-30T08:44:20.167Z,5.30
2022-10-30T08:46:47.117Z,3.67
2022-10-30T08:49:13.718Z,3.97
2022-10-30T08:51:40.280Z,4.45
2022-10-30T08:54:06.875Z,3.92
2022-10-30T08:56:33.416Z,3.63
2022-10-30T08:58:59.983Z,4.00
2022-10-30T09:01:26.849Z,3.35
2022-10-30T09:03:53.538Z,4.57
2022-10-30T09:06:20.144Z,5.05
2022-10-30T09:08:47.011Z,4.32
2022-10-30T09:11:13.587Z,4.35
2022-10-30T09:13:40.198Z,4.65
2022-10-30T09:16:06.933Z,3.80
2022-10-30T09:18:33.517Z,3.50
2022-10-30T09:21:03.156Z,3.92
2022-10-30T09:23:31.650Z,3.25
2022-10-30T09:25:58.290Z,3.15
2022-10-30T09:28:24.976Z,3.38
2022-10-30T09:30:56.336Z,3.20
2022-10-30T09:33:23.280Z,3.65
2022-10-30T09:35:49.854Z,3.83
2022-10-30T09:38:16.488Z,3.10
2022-10-30T09:41:14.533Z,3.50
2022-10-30T09:44:09.331Z,3.85
2022-10-30T09:46:40.139Z,4.22
2022-10-30T09:49:45.079Z,3.63
2022-10-30T09:52:39.870Z,3.50
2022-10-30T09:55:25.272Z,3.72
2022-10-30T09:58:01.160Z,3.60
2022-10-30T10:00:45.247Z,2.80
2022-10-30T10:03:20.616Z,4.22
2022-10-30T10:05:55.436Z,3.22
2022-10-30T10:08:27.164Z,3.22
2022-10-30T10:10:58.409Z,3.60
2022-10-30T10:13:30.377Z,3.33
2022-10-30T10:16:20.206Z,2.87
2022-10-30T10:18:49.029Z,3.70
2022-10-30T10:21:27.047Z,3.15
2022-10-30T10:23:58.721Z,3.40
2022-10-30T10:26:36.433Z,3.00
2022-10-30T10:29:39.916Z,2.97
2022-10-30T10:34:57.932Z,3.50
2022-10-30T10:37:43.674Z,2.95
2022-10-30T10:40:25.836Z,3.70
2022-10-30T10:43:30.896Z,2.90
2022-10-30T10:46:00.964Z,3.00
2022-10-30T10:49:05.604Z,2.85
2022-10-30T10:51:55.827Z,3.47
2022-10-30T10:54:35.541Z,3.72
2022-10-30T10:57:04.445Z,4.00
2022-10-30T10:59:39.037Z,3.45
2022-10-30T11:02:06.001Z,3.20
2022-10-30T11:04:40.016Z,3.28
2022-10-30T11:07:39.100Z,3.20
2022-10-30T11:10:12.484Z,3.28
2022-10-30T11:12:39.653Z,2.92
2022-10-30T11:15:32.830Z,3.30
2022-10-30T11:18:08.262Z,3.40
2022-10-30T11:21:08.848Z,2.97
2022-10-30T11:23:47.187Z,3.50
2022-10-30T11:26:25.978Z,3.42
2022-10-30T11:29:05.909Z,4.22
2022-10-30T11:31:40.742Z,3.65
2022-10-30T11:34:24.862Z,3.55
2022-10-30T11:36:53.342Z,3.63
2022-10-30T11:39:24.921Z,4.30
2022-10-30T11:41:54.822Z,5.80
2022-10-30T11:44:23.965Z,4.47
2022-10-30T11:46:50.614Z,4.28
2022-10-30T11:49:45.293Z,3.63
2022-10-30T11:52:13.235Z,3.38
2022-10-30T11:54:41.050Z,3.38
2022-10-30T11:57:22.661Z,3.35
2022-10-30T11:59:51.853Z,3.60
2022-10-30T12:02:29.558Z,3.83
2022-10-30T12:05:00.742Z,3.63
2022-10-30T12:07:32.291Z,3.53
2022-10-30T12:09:59.500Z,3.33
2022-10-30T12:12:42.197Z,4.10
2022-10-30T12:18:00.732Z,4.45
2022-10-30T12:20:28.004Z,3.63
2022-10-30T12:22:55.647Z,3.85
2022-10-30T12:25:27.500Z,4.53
2022-10-30T12:28:05.331Z,4.20
2022-10-30T12:30:37.874Z,4.07
2022-10-30T12:35:38.811Z,3.75
2022-10-30T12:38:08.031Z,2.97
2022-10-30T12:40:42.189Z,3.75
2022-10-30T12:43:27.422Z,3.25
2022-10-30T12:46:23.384Z,3.83
2022-10-30T12:49:03.725Z,3.65
2022-10-30T12:51:35.630Z,3.30
2022-10-30T12:54:08.059Z,3.08
2022-10-30T12:59:31.858Z,3.38
2022-10-30T13:02:14.367Z,3.30
2022-10-30T13:07:28.589Z,3.22
2022-10-30T13:10:14.106Z,2.80
2022-10-30T13:12:42.550Z,3.00
2022-10-30T13:15:33.557Z,3.95
2022-10-30T13:18:07.986Z,3.55
2022-10-30T13:21:29.423Z,3.08
2022-10-30T13:24:03.936Z,3.40
2022-10-30T13:26:41.951Z,3.95
2022-10-30T13:29:16.963Z,4.50
2022-10-30T13:32:04.631Z,5.93
2022-10-30T13:34:41.042Z,6.50
2022-10-30T13:37:19.952Z,5.07
2022-10-30T13:40:31.461Z,5.22
2022-10-30T13:43:20.184Z,6.28
2022-10-30T13:45:56.544Z,5.97
2022-10-30T13:48:35.774Z,6.90
2022-10-30T13:51:13.465Z,6.80
2022-10-30T13:53:42.542Z,6.72
2022-10-30T13:56:11.209Z,7.15
2022-10-30T13:58:40.566Z,6.18
2022-10-30T14:01:17.798Z,4.53
2022-10-30T14:03:54.193Z,4.53
2022-10-30T14:06:57.707Z,3.47
2022-10-30T14:10:09.916Z,3.78
2022-10-30T14:13:00.981Z,4.10
2022-10-30T14:15:48.452Z,3.35
2022-10-30T14:18:15.847Z,3.58
2022-10-30T14:20:52.993Z,3.65
2022-10-30T14:23:23.220Z,3.15
2022-10-30T14:26:24.734Z,4.60
2022-10-30T14:28:51.718Z,3.55
2022-10-30T14:31:19.739Z,3.00
2022-10-30T14:33:53.995Z,3.83
2022-10-30T14:36:25.856Z,2.90
2022-10-30T14:39:00.168Z,3.72
2022-10-30T14:41:27.058Z,3.30
2022-10-30T14:44:21.881Z,2.65
2022-10-30T14:47:00.791Z,3.15
2022-10-30T14:49:49.314Z,3.53
2022-10-30T14:52:40.280Z,3.22
2022-10-30T14:55:28.882Z,4.10
2022-10-30T14:58:02.083Z,3.83
2022-10-30T15:00:42.981Z,3.60
2022-10-30T15:03:13.564Z,2.85
2022-10-30T15:05:55.586Z,3.15
2022-10-30T15:08:26.283Z,3.80
2022-10-30T15:11:18.183Z,4.00
2022-10-30T15:13:50.247Z,3.40
2022-10-30T15:16:18.312Z,3.43
2022-10-30T15:18:48.023Z,3.03
2022-10-30T15:21:23.195Z,4.07
2022-10-30T15:23:49.963Z,4.20
2022-10-30T15:26:23.771Z,3.63
2022-10-30T15:28:51.285Z,3.45
2022-10-30T15:31:17.829Z,3.95
2022-10-30T15:33:45.205Z,4.30
2022-10-30T15:36:18.700Z,4.47
2022-10-30T15:39:02.940Z,4.70
2022-10-30T15:41:30.016Z,4.40
2022-10-30T15:43:59.316Z,4.45
2022-10-30T15:46:26.065Z,4.63
2022-10-30T15:48:53.533Z,4.40
2022-10-30T15:51:23.427Z,4.50
2022-10-30T15:53:52.569Z,3.80
2022-10-30T15:56:25.696Z,3.97
2022-10-30T15:59:32.004Z,4.82
2022-10-30T16:01:59.067Z,3.97
2022-10-30T16:04:31.453Z,4.53
2022-10-30T16:07:02.154Z,5.22
2022-10-30T16:09:29.437Z,4.80
2022-10-30T16:11:59.820Z,5.88
2022-10-30T16:14:28.951Z,5.88
2022-10-30T16:16:55.984Z,4.70
2022-10-30T16:19:29.112Z,5.22
2022-10-30T16:21:57.087Z,6.53
2022-10-30T16:24:34.527Z,6.25
2022-10-30T16:27:12.651Z,6.60
2022-10-30T16:29:39.639Z,6.22
2022-10-30T16:34:38.439Z,6.13
2022-10-30T16:37:06.002Z,5.93
2022-10-30T16:39:32.911Z,7.38
2022-10-30T16:42:00.003Z,6.55
2022-10-30T16:44:26.992Z,5.70
2022-10-30T16:47:20.515Z,5.82
2022-10-30T16:49:52.958Z,5.85
2022-10-30T16:52:21.991Z,5.63
2022-10-30T16:54:50.702Z,6.03
2022-10-30T16:57:25.868Z,6.70
2022-10-30T16:59:52.924Z,7.18
2022-10-30T17:02:23.633Z,6.32
2022-10-30T17:04:55.419Z,6.40
2022-10-30T17:07:25.687Z,6.85
2022-10-30T17:09:53.866Z,6.97
2022-10-30T17:12:28.071Z,7.93
2022-10-30T17:15:06.855Z,7.68
2022-10-30T17:17:35.920Z,7.88
2022-10-30T17:20:18.833Z,8.48
2022-10-30T17:22:47.532Z,7.25
2022-10-30T17:25:27.105Z,6.85
2022-10-30T17:27:53.665Z,7.75
2022-10-30T17:30:29.507Z,7.43
2022-10-30T17:32:57.482Z,7.40
2022-10-30T17:35:24.450Z,7.40
2022-10-30T17:37:52.099Z,6.93
2022-10-30T17:40:19.562Z,6.88
2022-10-30T17:42:49.354Z,6.57
2022-10-30T17:45:17.269Z,7.15
2022-10-30T17:47:43.909Z,7.60
2022-10-30T17:50:12.536Z,6.95
2022-10-30T17:52:39.253Z,7.22
2022-10-30T17:55:17.876Z,8.02
2022-10-30T17:57:44.690Z,7.20
2022-10-30T18:00:11.779Z,8.30
2022-10-30T18:02:41.349Z,7.07
2022-10-30T18:05:16.862Z,6.65
2022-10-30T18:07:44.098Z,7.70
2022-10-30T18:10:13.175Z,7.80
2022-10-30T18:12:39.959Z,7.05
2022-10-30T18:15:35.616Z,7.38
2022-10-30T18:18:03.285Z,6.32
2022-10-30T18:20:30.027Z,6.47
2022-10-30T18:22:57.022Z,5.60
2022-10-30T18:25:35.722Z,5.95
2022-10-30T18:28:02.665Z,5.43
2022-10-30T18:30:29.515Z,5.68
2022-10-30T18:32:56.705Z,5.68
2022-10-30T18:35:33.237Z,5.07
2022-10-30T18:37:59.891Z,5.43
2022-10-30T18:40:26.494Z,6.28
2022-10-30T18:42:53.097Z,8.52
2022-10-30T18:45:27.676Z,9.20
2022-10-30T18:47:55.056Z,8.35
2022-10-30T18:50:23.077Z,8.75
2022-10-30T18:52:50.080Z,11.55
2022-10-30T18:55:32.999Z,8.25
2022-10-30T18:58:00.039Z,8.10
2022-10-30T19:00:39.760Z,8.60
2022-10-30T19:03:15.764Z,8.43
2022-10-30T19:05:50.919Z,8.23
2022-10-30T19:08:17.546Z,8.93
2022-10-30T19:10:45.843Z,9.60
2022-10-30T19:13:16.318Z,9.73
2022-10-30T19:15:45.613Z,9.02
2022-10-30T19:18:12.956Z,9.95
2022-10-30T19:21:02.600Z,9.10
2022-10-30T19:23:26.481Z,7.93
2022-10-30T19:25:54.912Z,8.48
2022-10-30T19:28:21.810Z,8.75
2022-10-30T19:30:53.032Z,8.55
2022-10-30T19:33:21.658Z,8.25
2022-10-30T19:35:54.883Z,8.68
2022-10-30T19:38:22.844Z,9.52
2022-10-30T19:40:50.036Z,7.85
2022-10-30T19:43:16.610Z,9.10
2022-10-30T19:45:43.208Z,7.20
2022-10-30T19:48:24.768Z,8.30
2022-10-30T19:51:01.107Z,7.60
2022-10-30T19:53:27.680Z,7.40
2022-10-30T19:55:54.244Z,7.13
2022-10-30T19:58:23.622Z,7.80
2022-10-30T20:00:54.271Z,8.02
2022-10-30T20:03:21.075Z,7.78
2022-10-30T20:05:50.427Z,7.78
2022-10-30T20:08:18.898Z,7.82
2022-10-30T20:10:54.956Z,8.30
2022-10-30T20:13:23.367Z,7.72
2022-10-30T20:15:51.102Z,7.60
2022-10-30T20:18:30.211Z,7.07
2022-10-30T20:20:59.298Z,6.95
2022-10-30T20:23:26.501Z,7.43
2022-10-30T20:25:54.657Z,7.97
2022-10-30T20:28:30.143Z,9.77
2022-10-30T20:30:56.930Z,7.43
2022-10-30T20:33:24.483Z,7.28
2022-10-30T20:35:51.862Z,8.40
2022-10-30T20:38:26.124Z,10.20
2022-10-30T20:40:53.343Z,11.05
2022-10-30T20:43:21.840Z,11.00
2022-10-30T20:45:48.424Z,10.32
2022-10-30T20:48:14.966Z,11.07
2022-10-30T20:50:41.706Z,10.43
2022-10-30T20:53:11.433Z,11.13
2022-10-30T20:55:38.179Z,9.35
2022-10-30T20:58:04.855Z,10.98
2022-10-30T21:00:31.503Z,10.80
2022-10-30T21:03:01.143Z,10.45
2022-10-30T21:05:43.142Z,9.25
2022-10-30T21:08:10.240Z,10.60
2022-10-30T21:10:37.739Z,10.27
2022-10-30T21:13:07.525Z,9.95
2022-10-30T21:15:40.552Z,10.20
2022-10-30T21:18:08.367Z,10.30
2022-10-30T21:20:35.768Z,10.38
2022-10-30T21:23:02.432Z,10.85
2022-10-30T21:25:29.696Z,12.45
2022-10-30T21:27:57.078Z,10.82
2022-10-30T21:30:24.597Z,10.65
2022-10-30T21:32:51.167Z,9.63
2022-10-30T21:35:18.122Z,10.07
2022-10-30T21:37:44.661Z,10.45
2022-10-30T21:40:11.964Z,10.40
2022-10-30T21:42:38.527Z,10.77
2022-10-30T21:45:05.884Z,10.75
2022-10-30T21:47:32.494Z,8.48
2022-10-30T21:49:59.101Z,9.35
2022-10-30T21:52:25.656Z,7.88
2022-10-30T21:54:52.758Z,7.93
2022-10-30T21:57:19.360Z,8.80
2022-10-30T21:59:45.992Z,7.57
2022-10-30T22:02:14.306Z,7.72
2022-10-30T22:04:40.924Z,7.38
2022-10-30T22:07:07.753Z,8.00
2022-10-30T22:09:34.373Z,7.20
2022-10-30T22:12:00.927Z,8.23
2022-10-30T22:14:28.631Z,9.63
2022-10-30T22:16:55.209Z,7.80
2022-10-30T22:19:22.044Z,8.38
2022-10-30T22:21:48.591Z,8.40
2022-10-30T22:24:16.299Z,7.68
2022-10-30T22:26:42.992Z,9.05
2022-10-30T22:29:09.852Z,7.28
2022-10-30T22:31:37.214Z,8.15
2022-10-30T22:34:03.879Z,7.90
2022-10-30T22:36:32.698Z,8.95
2022-10-30T22:38:59.368Z,7.90
2022-10-30T22:41:28.682Z,8.10
2022-10-30T22:43:59.283Z,8.07
2022-10-30T22:46:28.318Z,9.27
2022-10-30T22:48:55.554Z,7.40
2022-10-30T22:51:22.218Z,8.90
2022-10-30T22:53:55.441Z,7.63
2022-10-30T22:56:24.159Z,8.00
2022-10-30T22:58:51.973Z,7.93
2022-10-30T23:01:25.442Z,8.45
2022-10-30T23:03:53.121Z,8.15
2022-10-30T23:06:19.850Z,8.43
2022-10-30T23:08:46.764Z,7.60
2022-10-30T23:11:13.550Z,9.45
2022-10-30T23:13:42.957Z,8.02
2022-10-30T23:16:14.005Z,7.90
2022-10-30T23:18:40.603Z,7.63
2022-10-30T23:21:09.225Z,8.40
2022-10-30T23:23:37.081Z,7.72
2022-10-30T23:26:06.043Z,7.95
2022-10-30T23:28:32.759Z,8.32
2022-10-30T23:30:59.326Z,7.70
2022-10-30T23:33:25.922Z,8.50
2022-10-30T23:35:58.800Z,7.45
2022-10-30T23:38:25.445Z,8.38
2022-10-30T23:40:52.043Z,8.65
2022-10-30T23:43:18.625Z,7.90
2022-10-30T23:45:45.227Z,8.27
2022-10-30T23:48:11.794Z,8.20
2022-10-30T23:50:38.394Z,8.52
2022-10-30T23:53:05.000Z,7.85
2022-10-30T23:55:31.622Z,8.38
2022-10-30T23:57:58.589Z,8.25
